Rolling Meadows, Illinois
Current Conditions -  °F | °C
As of 11:52 PM on Monday 20 Oct 2014 (Local Time) from KPWK Reporting Station
Overcast Overcast  
Wind Chill: 12°   Ceiling: 5000
Heat Index: 12°   Visibility: 10mi
Dew Point:   Wind: 6mph
Humidity: 66%   Direction: 350°N
Pressure: 30.01"   Gusts: NA
Location:  42.08°N, 88.03°W
Report Text: KPWK 210452Z AUTO 35005KT 10SM OVC050 12/06 A3001 RMK AO2 SLP164 T01170056
Loading
Personal Weather Stations






























Interactive Weather Map
Tropical Storm Tracking
New forecast layout! Learn more

10-Day Weather Forecast

Advertisements
Track Severe Weather on mobile